createdAt,value
2023-01-21T00:01:46.795Z,3.53
2023-01-21T00:04:16.245Z,3.80
2023-01-21T00:06:44.535Z,3.87
2023-01-21T00:09:41.773Z,3.23
2023-01-21T00:12:09.881Z,3.90
2023-01-21T00:14:38.085Z,3.87
2023-01-21T00:17:06.204Z,4.03
2023-01-21T00:19:35.589Z,4.10
2023-01-21T00:22:04.191Z,3.30
2023-01-21T00:24:32.244Z,4.07
2023-01-21T00:27:00.400Z,3.50
2023-01-21T00:29:28.439Z,4.17
2023-01-21T00:31:56.536Z,3.60
2023-01-21T00:34:24.627Z,4.07
2023-01-21T00:36:56.349Z,3.50
2023-01-21T00:39:24.648Z,3.60
2023-01-21T00:41:52.689Z,3.50
2023-01-21T00:44:20.752Z,3.67
2023-01-21T00:46:48.740Z,3.83
2023-01-21T00:49:17.203Z,3.50
2023-01-21T00:51:45.273Z,4.23
2023-01-21T00:54:14.899Z,3.60
2023-01-21T00:56:42.936Z,3.17
2023-01-21T00:59:11.113Z,3.03
2023-01-21T01:01:39.393Z,3.83
2023-01-21T01:04:08.057Z,3.90
2023-01-21T01:06:36.269Z,3.47
2023-01-21T01:09:04.852Z,3.70
2023-01-21T01:11:34.268Z,3.33
2023-01-21T01:14:02.318Z,4.10
2023-01-21T01:16:30.316Z,3.33
2023-01-21T01:18:58.328Z,3.73
2023-01-21T01:21:26.502Z,3.70
2023-01-21T01:23:54.741Z,3.67
2023-01-21T01:26:23.603Z,3.70
2023-01-21T01:28:53.847Z,3.47
2023-01-21T01:31:22.781Z,3.13
2023-01-21T01:33:50.944Z,3.53
2023-01-21T01:36:23.567Z,3.97
2023-01-21T01:38:52.758Z,3.80
2023-01-21T01:41:23.966Z,4.00
2023-01-21T01:43:58.790Z,4.13
2023-01-21T01:46:29.611Z,3.73
2023-01-21T01:49:13.271Z,4.00
2023-01-21T01:51:49.423Z,4.03
2023-01-21T01:54:23.272Z,4.43
2023-01-21T01:56:56.374Z,3.40
2023-01-21T01:59:26.463Z,4.13
2023-01-21T02:01:54.816Z,4.57
2023-01-21T02:04:28.490Z,4.17
2023-01-21T02:06:58.256Z,4.30
2023-01-21T02:09:29.819Z,3.53
2023-01-21T02:11:59.212Z,4.23
2023-01-21T02:14:29.352Z,3.83
2023-01-21T02:17:11.241Z,3.97
2023-01-21T02:20:24.280Z,3.93
2023-01-21T02:23:04.710Z,3.77
2023-01-21T02:26:15.226Z,4.23
2023-01-21T02:29:32.926Z,3.43
2023-01-21T02:32:40.409Z,3.27
2023-01-21T02:35:17.945Z,3.70
2023-01-21T02:37:54.017Z,3.67
2023-01-21T02:40:30.297Z,3.30
2023-01-21T02:43:07.506Z,4.13
2023-01-21T02:45:44.551Z,3.63
2023-01-21T02:48:18.030Z,3.30
2023-01-21T02:50:51.032Z,3.40
2023-01-21T02:53:27.270Z,3.87
2023-01-21T02:55:57.219Z,3.80
2023-01-21T02:58:29.884Z,3.80
2023-01-21T03:01:14.699Z,4.17
2023-01-21T03:04:31.318Z,4.17
2023-01-21T03:07:09.055Z,3.60
2023-01-21T03:09:38.098Z,4.67
2023-01-21T03:12:31.063Z,4.17
2023-01-21T03:15:23.268Z,4.20
2023-01-21T03:17:58.651Z,3.97
2023-01-21T03:20:30.158Z,4.77
2023-01-21T03:23:03.785Z,4.60
2023-01-21T03:25:35.132Z,6.00
2023-01-21T03:28:12.019Z,6.33
2023-01-21T03:30:44.797Z,5.00
2023-01-21T03:33:17.350Z,4.27
2023-01-21T03:35:49.831Z,4.97
2023-01-21T03:38:29.514Z,4.23
2023-01-21T03:41:04.264Z,4.87
2023-01-21T03:43:33.110Z,4.37
2023-01-21T03:46:08.090Z,5.17
2023-01-21T03:48:44.659Z,4.57
2023-01-21T03:51:19.607Z,4.37
2023-01-21T03:53:53.461Z,4.23
2023-01-21T03:56:21.514Z,3.60
2023-01-21T03:58:49.555Z,4.30
2023-01-21T04:01:17.685Z,3.87
2023-01-21T04:03:45.708Z,4.33
2023-01-21T04:06:15.804Z,3.77
2023-01-21T04:08:44.203Z,4.37
2023-01-21T04:11:13.657Z,3.77
2023-01-21T04:13:41.826Z,3.43
2023-01-21T04:16:10.579Z,3.90
2023-01-21T04:18:38.688Z,4.00
2023-01-21T04:21:06.786Z,3.90
2023-01-21T04:23:34.958Z,3.50
2023-01-21T04:26:04.173Z,4.37
2023-01-21T04:28:33.918Z,4.03
2023-01-21T04:31:02.148Z,4.20
2023-01-21T04:33:30.702Z,3.83
2023-01-21T04:35:59.971Z,4.27
2023-01-21T04:38:28.963Z,4.53
2023-01-21T04:40:57.085Z,4.00
2023-01-21T04:43:25.237Z,3.50
2023-01-21T04:45:54.757Z,3.63
2023-01-21T04:48:22.790Z,3.90
2023-01-21T04:50:51.970Z,4.13
2023-01-21T04:53:19.972Z,4.33
2023-01-21T04:55:48.008Z,3.67
2023-01-21T04:58:16.052Z,3.77
2023-01-21T05:00:44.103Z,3.23
2023-01-21T05:03:13.493Z,4.00
2023-01-21T05:05:41.542Z,3.70
2023-01-21T05:08:09.660Z,3.07
2023-01-21T05:10:37.721Z,3.20
2023-01-21T05:13:06.040Z,3.30
2023-01-21T05:15:34.176Z,2.73
2023-01-21T05:18:02.301Z,3.57
2023-01-21T05:20:31.692Z,2.83
2023-01-21T05:22:59.760Z,3.23
2023-01-21T05:25:27.840Z,3.87
2023-01-21T05:27:56.882Z,3.70
2023-01-21T05:30:24.919Z,2.90
2023-01-21T05:32:53.793Z,3.10
2023-01-21T05:35:23.586Z,3.57
2023-01-21T05:37:53.106Z,3.37
2023-01-21T05:40:21.467Z,2.87
2023-01-21T05:42:49.586Z,3.03
2023-01-21T05:45:17.878Z,3.73
2023-01-21T05:47:45.934Z,4.87
2023-01-21T05:50:14.372Z,5.30
2023-01-21T05:52:42.570Z,6.43
2023-01-21T05:55:12.082Z,5.40
2023-01-21T05:57:40.145Z,5.50
2023-01-21T06:00:11.255Z,6.10
2023-01-21T06:02:39.431Z,7.07
2023-01-21T06:05:08.781Z,7.37
2023-01-21T06:07:36.839Z,7.40
2023-01-21T06:10:06.104Z,7.43
2023-01-21T06:12:35.543Z,8.23
2023-01-21T06:15:03.719Z,8.93
2023-01-21T06:17:31.777Z,8.20
2023-01-21T06:19:59.853Z,9.40
2023-01-21T06:22:27.923Z,10.00
2023-01-21T06:24:55.971Z,8.90
2023-01-21T06:27:24.066Z,10.00
2023-01-21T06:29:53.860Z,9.03
2023-01-21T06:32:22.444Z,9.77
2023-01-21T06:34:50.640Z,10.13
2023-01-21T06:37:18.728Z,10.77
2023-01-21T06:39:49.709Z,10.67
2023-01-21T06:42:18.569Z,9.50
2023-01-21T06:44:49.233Z,10.63
2023-01-21T06:47:18.796Z,10.07
2023-01-21T06:49:47.059Z,10.43
2023-01-21T06:52:15.285Z,10.80
2023-01-21T06:54:44.180Z,10.77
2023-01-21T06:57:12.828Z,9.77
2023-01-21T06:59:41.218Z,11.57
2023-01-21T07:02:13.248Z,10.40
2023-01-21T07:04:42.737Z,10.00
2023-01-21T07:07:10.927Z,10.80
2023-01-21T07:09:41.953Z,11.00
2023-01-21T07:12:10.214Z,10.13
2023-01-21T07:14:38.421Z,10.53
2023-01-21T07:17:06.776Z,12.10
2023-01-21T07:19:34.920Z,10.47
2023-01-21T07:22:04.563Z,10.10
2023-01-21T07:24:32.703Z,8.90
2023-01-21T07:27:00.833Z,8.93
2023-01-21T07:29:29.434Z,9.27
2023-01-21T07:31:57.582Z,9.70
2023-01-21T07:34:25.776Z,10.07
2023-01-21T07:36:54.101Z,10.67
2023-01-21T07:39:23.763Z,9.80
2023-01-21T07:41:52.045Z,11.07
2023-01-21T07:44:20.242Z,9.60
2023-01-21T07:46:48.524Z,10.87
2023-01-21T07:49:18.368Z,10.00
2023-01-21T07:51:47.186Z,9.77
2023-01-21T07:54:16.296Z,11.57
2023-01-21T07:56:45.784Z,8.77
2023-01-21T07:59:15.123Z,9.27
2023-01-21T08:01:43.441Z,9.07
2023-01-21T08:04:11.692Z,9.07
2023-01-21T08:06:41.316Z,8.60
2023-01-21T08:09:10.486Z,9.70
2023-01-21T08:11:38.672Z,8.87
2023-01-21T08:14:08.332Z,9.33
2023-01-21T08:16:36.520Z,9.30
2023-01-21T08:19:04.591Z,9.27
2023-01-21T08:21:35.074Z,9.10
2023-01-21T08:24:03.198Z,8.23
2023-01-21T08:26:31.336Z,8.53
2023-01-21T08:28:59.512Z,8.03
2023-01-21T08:31:29.318Z,8.90
2023-01-21T08:33:57.890Z,8.87
2023-01-21T08:36:26.208Z,7.77
2023-01-21T08:38:54.906Z,8.03
2023-01-21T08:41:23.094Z,7.53
2023-01-21T08:43:51.183Z,8.63
2023-01-21T08:46:19.541Z,8.73
2023-01-21T08:48:49.059Z,8.60
2023-01-21T08:51:17.263Z,8.40
2023-01-21T08:53:45.368Z,8.87
2023-01-21T08:56:13.502Z,8.63
2023-01-21T08:58:41.800Z,8.10
2023-01-21T09:01:12.662Z,7.87
2023-01-21T09:03:41.128Z,7.23
2023-01-21T09:06:12.817Z,7.03
2023-01-21T09:08:42.076Z,7.30
2023-01-21T09:11:12.335Z,7.50
2023-01-21T09:13:40.949Z,8.37
2023-01-21T09:16:12.505Z,8.43
2023-01-21T09:18:41.253Z,8.43
2023-01-21T09:21:12.735Z,8.33
2023-01-21T09:23:42.066Z,7.80
2023-01-21T09:26:17.706Z,7.03
2023-01-21T09:28:52.086Z,7.07
2023-01-21T09:31:28.167Z,5.73
2023-01-21T09:33:59.132Z,7.43
2023-01-21T09:36:31.414Z,7.10
2023-01-21T09:39:06.446Z,5.67
2023-01-21T09:42:03.801Z,5.83
2023-01-21T09:44:45.383Z,6.20
2023-01-21T09:47:24.328Z,6.37
2023-01-21T09:53:30.677Z,6.90
2023-01-21T09:56:29.753Z,6.40
2023-01-21T10:02:35.401Z,6.87
2023-01-21T10:05:40.150Z,6.53
2023-01-21T10:08:19.904Z,7.30
2023-01-21T10:10:53.618Z,7.03
2023-01-21T10:13:58.310Z,6.70
2023-01-21T10:16:57.814Z,6.17
2023-01-21T10:19:36.711Z,6.43
2023-01-21T10:23:21.377Z,5.93
2023-01-21T10:26:44.033Z,6.63
2023-01-21T10:29:17.867Z,7.00
2023-01-21T10:31:59.732Z,6.70
2023-01-21T10:34:32.279Z,7.00
2023-01-21T10:37:14.905Z,7.73
2023-01-21T10:39:56.219Z,7.37
2023-01-21T10:42:58.384Z,7.83
2023-01-21T10:45:39.007Z,6.50
2023-01-21T10:48:38.173Z,7.40
2023-01-21T10:51:17.818Z,6.63
2023-01-21T10:53:54.087Z,7.13
2023-01-21T10:56:36.476Z,7.53
2023-01-21T10:59:11.765Z,6.27
2023-01-21T11:01:44.521Z,6.33
2023-01-21T11:04:21.219Z,7.13
2023-01-21T11:06:58.865Z,7.30
2023-01-21T11:09:29.586Z,7.23
2023-01-21T11:12:22.094Z,7.33
2023-01-21T11:15:20.192Z,7.10
2023-01-21T11:17:53.640Z,7.37
2023-01-21T11:20:29.358Z,6.90
2023-01-21T11:22:57.524Z,6.83
2023-01-21T11:25:32.246Z,6.60
2023-01-21T11:28:00.339Z,8.33
2023-01-21T11:30:50.169Z,8.47
2023-01-21T11:33:28.022Z,8.00
2023-01-21T11:35:58.351Z,6.90
2023-01-21T11:38:34.375Z,7.50
2023-01-21T11:41:15.000Z,6.97
2023-01-21T11:43:46.428Z,6.40
2023-01-21T11:46:31.323Z,6.53
2023-01-21T11:49:30.648Z,6.70
2023-01-21T11:52:19.930Z,7.07
2023-01-21T11:54:49.318Z,6.20
2023-01-21T11:57:31.132Z,6.43
2023-01-21T12:00:08.566Z,6.73
2023-01-21T12:02:47.598Z,6.10
2023-01-21T12:05:29.759Z,6.97
2023-01-21T12:07:58.786Z,5.67
2023-01-21T12:10:33.923Z,6.33
2023-01-21T12:13:23.271Z,6.93
2023-01-21T12:16:34.606Z,6.77
2023-01-21T12:19:51.224Z,5.40
2023-01-21T12:22:36.030Z,7.13
2023-01-21T12:25:31.725Z,5.97
2023-01-21T12:28:18.634Z,7.03
2023-01-21T12:31:00.109Z,6.13
2023-01-21T12:33:48.235Z,6.20
2023-01-21T12:36:25.852Z,6.33
2023-01-21T12:39:12.920Z,6.50
2023-01-21T12:41:44.520Z,6.70
2023-01-21T12:44:28.506Z,7.70
2023-01-21T12:47:07.933Z,7.37
2023-01-21T12:50:09.536Z,6.13
2023-01-21T12:52:55.139Z,6.70
2023-01-21T12:55:37.888Z,7.20
2023-01-21T12:58:12.588Z,6.47
2023-01-21T13:00:46.509Z,6.10
2023-01-21T13:03:27.718Z,6.23
2023-01-21T13:06:01.767Z,6.27
2023-01-21T13:08:54.205Z,7.67
2023-01-21T13:11:27.390Z,6.20
2023-01-21T13:14:18.429Z,7.37
2023-01-21T13:16:54.086Z,6.60
2023-01-21T13:19:22.243Z,6.33
2023-01-21T13:22:15.214Z,7.30
2023-01-21T13:25:05.700Z,6.63
2023-01-21T13:27:44.496Z,6.97
2023-01-21T13:30:29.650Z,7.17
2023-01-21T13:33:22.883Z,6.07
2023-01-21T13:36:05.636Z,7.47
2023-01-21T13:38:42.537Z,6.27
2023-01-21T13:41:29.737Z,5.90
2023-01-21T13:44:48.662Z,6.53
2023-01-21T13:47:32.033Z,6.10
2023-01-21T13:50:23.389Z,6.63
2023-01-21T13:53:27.392Z,6.10
2023-01-21T13:56:13.322Z,6.20
2023-01-21T13:58:50.226Z,6.03
2023-01-21T14:01:25.283Z,7.20
2023-01-21T14:04:02.017Z,7.00
2023-01-21T14:06:43.370Z,6.53
2023-01-21T14:09:20.750Z,6.50
2023-01-21T14:11:57.278Z,6.60
2023-01-21T14:14:52.473Z,6.10
2023-01-21T14:17:45.828Z,6.50
2023-01-21T14:20:56.827Z,6.00
2023-01-21T14:24:05.129Z,6.00
2023-01-21T14:27:03.200Z,6.03
2023-01-21T14:29:41.883Z,6.17
2023-01-21T14:32:17.542Z,5.77
2023-01-21T14:34:56.739Z,5.77
2023-01-21T14:37:33.171Z,6.00
2023-01-21T14:40:17.531Z,6.83
2023-01-21T14:42:49.279Z,6.47
2023-01-21T14:45:22.501Z,5.87
2023-01-21T14:47:53.247Z,6.83
2023-01-21T14:50:51.834Z,6.37
2023-01-21T14:53:26.652Z,6.27
2023-01-21T14:56:10.662Z,6.93
2023-01-21T14:58:40.176Z,6.43
2023-01-21T15:01:25.159Z,6.40
2023-01-21T15:03:53.653Z,6.30
2023-01-21T15:06:24.713Z,6.40
2023-01-21T15:08:57.194Z,6.20
2023-01-21T15:11:31.527Z,6.13
2023-01-21T15:14:11.353Z,5.47
2023-01-21T15:16:42.760Z,6.13
2023-01-21T15:19:30.705Z,6.13
2023-01-21T15:22:38.849Z,6.10
2023-01-21T15:25:37.106Z,6.23
2023-01-21T15:28:44.221Z,5.47
2023-01-21T15:31:30.470Z,6.23
2023-01-21T15:34:03.515Z,5.37
2023-01-21T15:36:38.840Z,5.73
2023-01-21T15:39:16.461Z,6.00
2023-01-21T15:41:58.640Z,6.47
2023-01-21T15:44:48.410Z,5.73
2023-01-21T15:47:37.853Z,5.53
2023-01-21T15:50:21.483Z,4.83
2023-01-21T15:53:14.066Z,5.33
2023-01-21T15:56:04.159Z,4.70
2023-01-21T15:58:46.009Z,5.33
2023-01-21T16:01:25.857Z,10.67
2023-01-21T16:04:13.962Z,6.37
2023-01-21T16:06:58.201Z,5.80
2023-01-21T16:09:36.932Z,5.30
2023-01-21T16:12:19.846Z,4.80
2023-01-21T16:15:01.216Z,4.90
2023-01-21T16:17:47.347Z,5.57
2023-01-21T16:20:17.327Z,4.33
2023-01-21T16:22:51.988Z,4.57
2023-01-21T16:25:25.402Z,4.77
2023-01-21T16:27:56.050Z,4.90
2023-01-21T16:30:30.774Z,5.20
2023-01-21T16:33:11.488Z,4.50
2023-01-21T16:35:48.498Z,4.83
2023-01-21T16:38:21.689Z,5.90
2023-01-21T16:40:51.465Z,4.90
2023-01-21T16:43:25.993Z,4.60
2023-01-21T16:45:56.437Z,5.20
2023-01-21T16:48:27.205Z,4.37
2023-01-21T16:50:59.261Z,4.40
2023-01-21T16:53:31.127Z,4.80
2023-01-21T16:56:00.560Z,4.47
2023-01-21T16:58:32.387Z,4.80
2023-01-21T17:01:11.164Z,4.40
2023-01-21T17:03:45.048Z,4.37
2023-01-21T17:06:21.072Z,4.60
2023-01-21T17:08:55.593Z,4.57
2023-01-21T17:11:24.512Z,4.73
2023-01-21T17:13:53.883Z,5.00
2023-01-21T17:16:31.103Z,5.57
2023-01-21T17:19:02.424Z,5.43
2023-01-21T17:21:39.452Z,5.97
2023-01-21T17:24:18.979Z,6.33
2023-01-21T17:26:52.906Z,4.70
2023-01-21T17:29:26.646Z,4.93
2023-01-21T17:31:59.631Z,4.67
2023-01-21T17:34:30.194Z,4.10
2023-01-21T17:36:59.050Z,4.37
2023-01-21T17:40:01.647Z,4.67
2023-01-21T17:42:44.453Z,5.17
2023-01-21T17:45:31.580Z,4.83
2023-01-21T17:48:09.457Z,4.00
2023-01-21T17:50:38.621Z,4.30
2023-01-21T17:53:18.644Z,5.73
2023-01-21T17:56:01.605Z,4.80
2023-01-21T17:58:49.651Z,4.60
2023-01-21T18:01:19.683Z,5.57
2023-01-21T18:03:47.809Z,4.80
2023-01-21T18:06:23.573Z,4.77
2023-01-21T18:08:52.778Z,4.17
2023-01-21T18:11:24.712Z,4.47
2023-01-21T18:13:53.162Z,4.87
2023-01-21T18:16:21.380Z,5.07
2023-01-21T18:18:50.487Z,5.53
2023-01-21T18:21:21.628Z,5.57
2023-01-21T18:23:50.572Z,6.10
2023-01-21T18:26:28.095Z,6.73
2023-01-21T18:28:56.211Z,7.07
2023-01-21T18:31:24.866Z,7.13
2023-01-21T18:33:53.027Z,7.20
2023-01-21T18:36:21.111Z,6.97
2023-01-21T18:38:49.197Z,8.00
2023-01-21T18:41:17.426Z,7.83
2023-01-21T18:43:46.921Z,7.93
2023-01-21T18:46:16.294Z,8.40
2023-01-21T18:48:44.500Z,8.67
2023-01-21T18:51:14.405Z,8.00
2023-01-21T18:53:42.683Z,7.87
2023-01-21T18:56:15.449Z,7.97
2023-01-21T18:58:43.900Z,8.70
2023-01-21T19:01:22.940Z,8.90
2023-01-21T19:03:54.852Z,9.67
2023-01-21T19:06:24.684Z,8.07
2023-01-21T19:08:54.897Z,8.47
2023-01-21T19:11:23.065Z,9.40
2023-01-21T19:13:51.116Z,9.73
2023-01-21T19:16:21.953Z,7.77
2023-01-21T19:18:50.312Z,8.40
2023-01-21T19:21:18.812Z,10.90
2023-01-21T19:23:47.160Z,9.57
2023-01-21T19:26:15.473Z,8.33
2023-01-21T19:28:43.708Z,10.30
2023-01-21T19:31:11.988Z,9.60
2023-01-21T19:33:45.398Z,7.17
2023-01-21T19:36:16.333Z,8.33
2023-01-21T19:38:54.707Z,6.50
2023-01-21T19:41:23.114Z,6.97
2023-01-21T19:43:51.553Z,7.13
2023-01-21T19:46:20.356Z,6.57
2023-01-21T19:48:50.522Z,6.77
2023-01-21T19:51:18.823Z,5.80
2023-01-21T19:53:47.111Z,6.17
2023-01-21T19:56:21.566Z,6.73
2023-01-21T19:58:51.242Z,5.97
2023-01-21T20:01:19.384Z,6.40
2023-01-21T20:03:59.728Z,5.90
2023-01-21T20:06:40.255Z,6.60
2023-01-21T20:09:11.458Z,5.97
2023-01-21T20:11:39.805Z,5.90
2023-01-21T20:14:08.137Z,6.93
2023-01-21T20:16:46.596Z,6.57
2023-01-21T20:19:19.103Z,6.43
2023-01-21T20:21:59.850Z,6.80
2023-01-21T20:24:30.318Z,6.60
2023-01-21T20:27:03.363Z,7.27
2023-01-21T20:29:31.785Z,6.63
2023-01-21T20:31:59.981Z,5.43
2023-01-21T20:34:32.027Z,6.67
2023-01-21T20:37:00.371Z,6.30
2023-01-21T20:39:28.512Z,6.50
2023-01-21T20:41:56.660Z,6.97
2023-01-21T20:44:25.123Z,6.83
2023-01-21T20:46:53.580Z,5.97
2023-01-21T20:49:21.595Z,6.67
2023-01-21T20:51:51.249Z,5.97
2023-01-21T20:54:19.327Z,6.17
2023-01-21T20:56:48.207Z,6.47
2023-01-21T20:59:18.383Z,7.03
2023-01-21T21:01:47.122Z,6.23
2023-01-21T21:04:15.297Z,6.13
2023-01-21T21:06:46.433Z,6.50
2023-01-21T21:09:16.386Z,6.33
2023-01-21T21:11:44.522Z,6.47
2023-01-21T21:14:15.025Z,5.70
2023-01-21T21:16:45.347Z,6.93
2023-01-21T21:19:13.859Z,6.43
2023-01-21T21:21:41.915Z,6.23
2023-01-21T21:24:10.050Z,5.50
2023-01-21T21:26:40.851Z,6.27
2023-01-21T21:29:13.225Z,5.90
2023-01-21T21:31:41.294Z,5.90
2023-01-21T21:34:10.591Z,5.23
2023-01-21T21:36:38.729Z,6.70
2023-01-21T21:39:07.232Z,5.57
2023-01-21T21:41:52.693Z,6.37
2023-01-21T21:44:22.113Z,5.10
2023-01-21T21:47:07.660Z,6.03
2023-01-21T21:49:35.717Z,5.23
2023-01-21T21:52:06.902Z,6.13
2023-01-21T21:54:34.984Z,5.37
2023-01-21T21:57:03.104Z,5.57
2023-01-21T21:59:32.470Z,6.13
2023-01-21T22:02:00.807Z,5.93
2023-01-21T22:04:28.919Z,5.73
2023-01-21T22:06:57.027Z,5.73
2023-01-21T22:09:25.105Z,5.33
2023-01-21T22:11:53.150Z,5.77
2023-01-21T22:14:21.287Z,5.97
2023-01-21T22:16:51.988Z,5.93
2023-01-21T22:19:20.153Z,5.93
2023-01-21T22:21:48.247Z,5.80
2023-01-21T22:24:16.890Z,5.57
2023-01-21T22:26:45.089Z,5.87
2023-01-21T22:29:13.876Z,5.77
2023-01-21T22:31:42.183Z,4.60
2023-01-21T22:34:12.802Z,5.13
2023-01-21T22:36:42.090Z,5.13
2023-01-21T22:39:12.488Z,4.73
2023-01-21T22:41:40.605Z,5.13
2023-01-21T22:44:08.712Z,5.57
2023-01-21T22:46:36.888Z,4.53
2023-01-21T22:49:05.009Z,5.20
2023-01-21T22:51:34.485Z,4.93
2023-01-21T22:54:07.479Z,4.67
2023-01-21T22:56:51.041Z,4.80
2023-01-21T22:59:20.483Z,5.23
2023-01-21T23:01:51.014Z,4.87
2023-01-21T23:04:19.276Z,4.17
2023-01-21T23:06:51.096Z,4.20
2023-01-21T23:09:19.275Z,5.10
2023-01-21T23:11:47.380Z,5.47
2023-01-21T23:14:16.521Z,5.40
2023-01-21T23:16:44.646Z,5.20
2023-01-21T23:19:17.728Z,4.33
2023-01-21T23:21:45.764Z,5.43
2023-01-21T23:24:15.193Z,4.73
2023-01-21T23:26:43.330Z,5.33
2023-01-21T23:29:12.350Z,5.60
2023-01-21T23:31:40.510Z,4.63
2023-01-21T23:34:08.681Z,4.67
2023-01-21T23:36:36.740Z,4.63
2023-01-21T23:39:05.211Z,5.47
2023-01-21T23:41:34.672Z,5.07
2023-01-21T23:44:03.558Z,5.57
2023-01-21T23:46:32.193Z,5.87
2023-01-21T23:49:00.283Z,5.10
2023-01-21T23:51:28.783Z,4.93
2023-01-21T23:53:57.731Z,4.90
2023-01-21T23:56:26.878Z,4.80
2023-01-21T23:58:56.651Z,5.20
